createdAt,value
2019-02-18T00:00:44.049Z,16.67
2019-02-18T00:01:29.346Z,15.27
2019-02-18T00:02:03.813Z,15.27
2019-02-18T00:02:38.243Z,12.60
2019-02-18T00:03:12.861Z,13.73
2019-02-18T00:03:47.645Z,16.00
2019-02-18T00:04:22.271Z,15.63
2019-02-18T00:04:56.885Z,16.23
2019-02-18T00:05:31.209Z,14.43
2019-02-18T00:06:05.814Z,16.27
2019-02-18T00:06:40.185Z,16.43
2019-02-18T00:07:14.990Z,14.53
2019-02-18T00:07:49.411Z,14.67
2019-02-18T00:08:24.608Z,13.87
2019-02-18T00:08:58.997Z,14.47
2019-02-18T00:09:33.344Z,13.10
2019-02-18T00:10:07.807Z,15.50
2019-02-18T00:10:42.713Z,15.53
2019-02-18T00:11:17.044Z,14.03
2019-02-18T00:11:51.446Z,15.53
2019-02-18T00:12:25.823Z,16.67
2019-02-18T00:13:00.751Z,16.10
2019-02-18T00:13:35.366Z,14.80
2019-02-18T00:14:09.762Z,12.40
2019-02-18T00:14:44.092Z,15.20
2019-02-18T00:15:18.483Z,12.40
2019-02-18T00:15:53.087Z,15.83
2019-02-18T00:16:27.414Z,12.33
2019-02-18T00:17:02.077Z,15.07
2019-02-18T00:17:36.452Z,16.80
2019-02-18T00:18:11.115Z,16.33
2019-02-18T00:18:45.474Z,16.90
2019-02-18T00:19:20.205Z,13.87
2019-02-18T00:19:54.608Z,15.20
2019-02-18T00:20:29.480Z,14.30
2019-02-18T00:21:03.818Z,15.80
2019-02-18T00:21:38.168Z,15.60
2019-02-18T00:22:12.566Z,15.53
2019-02-18T00:22:46.950Z,17.23
2019-02-18T00:23:21.562Z,13.37
2019-02-18T00:23:55.905Z,14.33
2019-02-18T00:24:30.251Z,16.23
2019-02-18T00:25:04.657Z,15.80
2019-02-18T00:25:39.261Z,14.83
2019-02-18T00:26:13.978Z,13.10
2019-02-18T00:26:48.392Z,13.20
2019-02-18T00:27:22.741Z,13.90
2019-02-18T00:27:57.071Z,13.10
2019-02-18T00:28:31.695Z,16.73
2019-02-18T00:29:06.304Z,13.83
2019-02-18T00:29:40.661Z,13.63
2019-02-18T00:30:15.011Z,14.37
2019-02-18T00:30:49.364Z,13.80
2019-02-18T00:31:24.022Z,15.20
2019-02-18T00:31:58.983Z,16.23
2019-02-18T00:32:33.320Z,14.37
2019-02-18T00:33:07.669Z,12.97
2019-02-18T00:33:42.000Z,15.50
2019-02-18T00:34:16.704Z,14.83
2019-02-18T00:34:51.058Z,13.67
2019-02-18T00:35:25.413Z,13.33
2019-02-18T00:36:00.011Z,13.70
2019-02-18T00:36:34.624Z,13.97
2019-02-18T00:37:09.249Z,13.87
2019-02-18T00:37:43.693Z,16.23
2019-02-18T00:38:18.144Z,14.83
2019-02-18T00:38:52.536Z,13.63
2019-02-18T00:39:26.897Z,14.63
2019-02-18T00:40:01.219Z,15.37
2019-02-18T00:40:35.637Z,16.83
2019-02-18T00:41:10.295Z,15.07
2019-02-18T00:41:44.653Z,14.30
2019-02-18T00:42:19.085Z,13.60
2019-02-18T00:42:53.706Z,13.63
2019-02-18T00:43:28.048Z,16.03
2019-02-18T00:44:02.662Z,15.87
2019-02-18T00:44:37.105Z,15.40
2019-02-18T00:45:11.628Z,14.00
2019-02-18T00:45:46.121Z,15.30
2019-02-18T00:46:20.764Z,16.87
2019-02-18T00:46:55.158Z,15.60
2019-02-18T00:47:29.499Z,14.63
2019-02-18T00:48:03.839Z,13.97
2019-02-18T00:48:38.453Z,14.50
2019-02-18T00:49:13.118Z,13.83
2019-02-18T00:49:47.736Z,14.93
2019-02-18T00:50:22.116Z,13.83
2019-02-18T00:50:56.880Z,13.83
2019-02-18T00:51:31.330Z,13.77
2019-02-18T00:52:05.719Z,15.20
2019-02-18T00:52:40.603Z,15.53
2019-02-18T00:53:15.019Z,14.90
2019-02-18T00:53:49.658Z,13.93
2019-02-18T00:54:24.263Z,15.10
2019-02-18T00:54:59.186Z,15.87
2019-02-18T00:55:33.546Z,14.57
2019-02-18T00:56:07.887Z,14.63
2019-02-18T00:56:42.234Z,17.17
2019-02-18T00:57:16.677Z,16.53
2019-02-18T00:57:51.061Z,14.47
2019-02-18T00:58:25.412Z,13.50
2019-02-18T00:59:00.053Z,16.17
2019-02-18T00:59:34.391Z,14.10
2019-02-18T01:00:09.953Z,16.43
2019-02-18T01:00:44.376Z,14.33
2019-02-18T01:01:18.746Z,13.53
2019-02-18T01:01:53.116Z,14.13
2019-02-18T01:02:27.493Z,14.93
2019-02-18T01:03:01.837Z,14.67
2019-02-18T01:03:36.194Z,14.60
2019-02-18T01:04:10.824Z,15.57
2019-02-18T01:04:45.158Z,17.50
2019-02-18T01:05:19.763Z,13.67
2019-02-18T01:05:54.213Z,15.33
2019-02-18T01:06:28.565Z,13.67
2019-02-18T01:07:02.959Z,13.87
2019-02-18T01:07:37.301Z,16.27
2019-02-18T01:08:11.922Z,17.40
2019-02-18T01:08:46.324Z,17.67
2019-02-18T01:09:20.978Z,17.40
2019-02-18T01:09:55.535Z,19.03
2019-02-18T01:10:29.871Z,15.87
2019-02-18T01:11:04.204Z,16.87
2019-02-18T01:11:38.818Z,18.93
2019-02-18T01:12:13.206Z,15.57
2019-02-18T01:12:47.567Z,15.67
2019-02-18T01:13:22.465Z,16.47
2019-02-18T01:13:57.092Z,16.90
2019-02-18T01:14:31.450Z,16.33
2019-02-18T01:15:06.555Z,17.13
2019-02-18T01:15:40.902Z,16.53
2019-02-18T01:16:15.620Z,14.90
2019-02-18T01:16:49.967Z,19.40
2019-02-18T01:17:24.373Z,18.57
2019-02-18T01:17:58.957Z,16.77
2019-02-18T01:18:33.331Z,16.67
2019-02-18T01:19:07.955Z,19.50
2019-02-18T01:19:42.306Z,17.00
2019-02-18T01:20:16.720Z,16.83
2019-02-18T01:20:51.382Z,20.87
2019-02-18T01:21:25.718Z,17.47
2019-02-18T01:22:00.145Z,17.80
2019-02-18T01:22:34.765Z,18.13
2019-02-18T01:23:09.129Z,18.27
2019-02-18T01:23:43.486Z,20.53
2019-02-18T01:24:17.873Z,18.37
2019-02-18T01:24:52.244Z,19.10
2019-02-18T01:25:26.963Z,19.07
2019-02-18T01:26:01.310Z,17.30
2019-02-18T01:26:36.374Z,19.53
2019-02-18T01:27:11.028Z,19.63
2019-02-18T01:27:45.717Z,17.27
2019-02-18T01:28:20.070Z,20.17
2019-02-18T01:28:54.677Z,17.57
2019-02-18T01:29:29.012Z,18.47
2019-02-18T01:30:03.448Z,16.07
2019-02-18T01:30:37.796Z,19.00
2019-02-18T01:31:12.131Z,17.50
2019-02-18T01:31:46.816Z,16.17
2019-02-18T01:32:21.212Z,17.37
2019-02-18T01:32:55.614Z,16.50
2019-02-18T01:33:29.966Z,18.93
2019-02-18T01:34:04.288Z,17.87
2019-02-18T01:34:38.943Z,20.63
2019-02-18T01:35:13.430Z,21.10
2019-02-18T01:35:47.819Z,18.60
2019-02-18T01:36:23.146Z,20.97
2019-02-18T01:36:57.629Z,18.33
2019-02-18T01:37:32.267Z,18.03
2019-02-18T01:38:06.596Z,19.07
2019-02-18T01:38:40.932Z,21.57
2019-02-18T01:39:15.539Z,17.13
2019-02-18T01:39:49.890Z,18.93
2019-02-18T01:40:24.812Z,17.23
2019-02-18T01:40:59.150Z,17.43
2019-02-18T01:41:33.491Z,20.37
2019-02-18T01:42:07.895Z,20.07
2019-02-18T01:42:42.518Z,18.10
2019-02-18T01:43:16.935Z,20.00
2019-02-18T01:43:51.566Z,17.30
2019-02-18T01:44:25.914Z,19.30
2019-02-18T01:45:00.846Z,18.63
2019-02-18T01:45:35.281Z,19.57
2019-02-18T01:46:09.927Z,20.67
2019-02-18T01:46:44.547Z,16.90
2019-02-18T01:47:18.925Z,18.67
2019-02-18T01:47:53.313Z,20.07
2019-02-18T01:48:27.922Z,19.20
2019-02-18T01:49:02.272Z,19.40
2019-02-18T01:49:36.860Z,17.57
2019-02-18T01:50:13.389Z,19.37
2019-02-18T01:50:47.841Z,15.53
2019-02-18T01:51:22.536Z,19.00
2019-02-18T01:51:56.902Z,17.43
2019-02-18T01:52:31.256Z,15.93
2019-02-18T01:53:05.928Z,16.50
2019-02-18T01:53:40.833Z,20.20
2019-02-18T01:54:15.188Z,17.63
2019-02-18T01:54:49.613Z,17.23
2019-02-18T01:55:23.973Z,16.60
2019-02-18T01:55:58.334Z,16.53
2019-02-18T01:56:32.971Z,18.87
2019-02-18T01:57:07.367Z,18.03
2019-02-18T01:57:42.057Z,19.83
2019-02-18T01:58:16.722Z,18.50
2019-02-18T01:58:51.083Z,17.57
2019-02-18T01:59:26.044Z,17.17
2019-02-18T02:00:00.374Z,17.90
2019-02-18T02:00:34.975Z,18.70
2019-02-18T02:01:09.316Z,17.27
2019-02-18T02:01:43.665Z,20.83
2019-02-18T02:02:18.093Z,18.60
2019-02-18T02:02:52.500Z,20.67
2019-02-18T02:03:26.853Z,15.90
2019-02-18T02:04:01.799Z,16.30
2019-02-18T02:04:36.142Z,18.00
2019-02-18T02:05:11.853Z,19.47
2019-02-18T02:05:46.547Z,19.70
2019-02-18T02:06:21.215Z,18.40
2019-02-18T02:06:55.650Z,15.87
2019-02-18T02:07:30.258Z,17.17
2019-02-18T02:08:04.736Z,18.20
2019-02-18T02:08:39.084Z,16.83
2019-02-18T02:09:15.122Z,18.03
2019-02-18T02:09:49.490Z,18.80
2019-02-18T02:10:23.846Z,20.30
2019-02-18T02:10:58.201Z,17.53
2019-02-18T02:11:32.549Z,16.60
2019-02-18T02:12:06.884Z,18.43
2019-02-18T02:12:41.224Z,15.10
2019-02-18T02:13:29.348Z,15.80
2019-02-18T02:14:03.694Z,16.20
2019-02-18T02:14:38.039Z,17.63
2019-02-18T02:15:15.788Z,13.63
2019-02-18T02:15:50.181Z,15.90
2019-02-18T02:16:24.822Z,16.60
2019-02-18T02:16:59.421Z,17.70
2019-02-18T02:17:33.758Z,17.50
2019-02-18T02:18:08.420Z,16.80
2019-02-18T02:18:42.765Z,14.70
2019-02-18T02:19:17.141Z,17.43
2019-02-18T02:19:51.520Z,16.93
2019-02-18T02:20:25.854Z,16.67
2019-02-18T02:21:00.462Z,16.40
2019-02-18T02:21:34.792Z,13.77
2019-02-18T02:22:09.162Z,15.37
2019-02-18T02:22:43.750Z,15.80
2019-02-18T02:23:18.159Z,17.57
2019-02-18T02:23:52.610Z,14.93
2019-02-18T02:24:26.950Z,15.33
2019-02-18T02:25:01.378Z,18.93
2019-02-18T02:25:36.054Z,18.40
2019-02-18T02:26:10.711Z,14.83
2019-02-18T02:26:45.294Z,16.23
2019-02-18T02:27:19.653Z,16.87
2019-02-18T02:27:54.267Z,15.80
2019-02-18T02:28:28.907Z,15.50
2019-02-18T02:29:03.265Z,14.90
2019-02-18T02:29:37.597Z,16.83
2019-02-18T02:30:12.474Z,16.60
2019-02-18T02:30:46.872Z,17.57
2019-02-18T02:31:21.804Z,17.23
2019-02-18T02:31:56.468Z,18.90
2019-02-18T02:32:31.080Z,14.87
2019-02-18T02:33:05.738Z,17.97
2019-02-18T02:33:40.086Z,14.80
2019-02-18T02:34:15.062Z,17.53
2019-02-18T02:34:49.703Z,16.13
2019-02-18T02:35:24.056Z,16.07
2019-02-18T02:35:59.000Z,15.37
2019-02-18T02:36:33.461Z,16.73
2019-02-18T02:37:07.814Z,14.60
2019-02-18T02:37:42.411Z,13.83
2019-02-18T02:38:17.163Z,17.37
2019-02-18T02:38:51.571Z,15.17
2019-02-18T02:39:25.972Z,15.10
2019-02-18T02:40:00.516Z,15.67
2019-02-18T02:40:34.815Z,16.80
2019-02-18T02:41:09.418Z,14.83
2019-02-18T02:41:44.008Z,15.73
2019-02-18T02:42:18.700Z,15.73
2019-02-18T02:42:53.072Z,17.40
2019-02-18T02:43:27.458Z,15.73
2019-02-18T02:44:02.054Z,16.57
2019-02-18T02:44:36.402Z,15.53
2019-02-18T02:45:11.280Z,16.10
2019-02-18T02:45:45.659Z,18.57
2019-02-18T02:46:20.078Z,17.27
2019-02-18T02:46:54.693Z,17.80
2019-02-18T02:47:29.014Z,17.17
2019-02-18T02:48:03.594Z,18.57
2019-02-18T02:48:37.981Z,16.03
2019-02-18T02:49:12.567Z,14.73
2019-02-18T02:49:47.263Z,16.63
2019-02-18T02:50:21.671Z,19.87
2019-02-18T02:50:56.016Z,17.33
2019-02-18T02:51:30.646Z,17.40
2019-02-18T02:52:05.073Z,17.70
2019-02-18T02:52:39.444Z,15.93
2019-02-18T02:53:13.858Z,16.30
2019-02-18T02:53:48.517Z,16.40
2019-02-18T02:54:22.867Z,15.63
2019-02-18T02:54:57.439Z,16.47
2019-02-18T02:55:31.778Z,17.63
2019-02-18T02:56:06.137Z,16.43
2019-02-18T02:56:40.727Z,17.57
2019-02-18T02:57:15.091Z,17.23
2019-02-18T02:57:49.761Z,17.73
2019-02-18T02:58:24.111Z,14.83
2019-02-18T02:58:58.483Z,16.00
2019-02-18T02:59:32.880Z,18.03
2019-02-18T03:00:08.451Z,16.67
2019-02-18T03:00:42.797Z,21.07
2019-02-18T03:01:17.192Z,16.43
2019-02-18T03:01:51.568Z,19.33
2019-02-18T03:02:25.927Z,17.07
2019-02-18T03:03:00.840Z,17.70
2019-02-18T03:03:35.206Z,22.23
2019-02-18T03:04:09.815Z,16.70
2019-02-18T03:04:44.725Z,19.70
2019-02-18T03:05:19.388Z,17.50
2019-02-18T03:05:54.048Z,19.40
2019-02-18T03:06:28.697Z,20.83
2019-02-18T03:07:03.423Z,18.33
2019-02-18T03:07:37.757Z,16.93
2019-02-18T03:08:19.784Z,16.40
2019-02-18T03:08:48.242Z,17.77
2019-02-18T03:09:22.882Z,18.63
2019-02-18T03:09:57.481Z,17.43
2019-02-18T03:10:31.830Z,17.37
2019-02-18T03:11:06.207Z,15.67
2019-02-18T03:11:40.852Z,16.90
2019-02-18T03:12:15.221Z,18.90
2019-02-18T03:12:50.288Z,19.73
2019-02-18T03:13:24.989Z,17.87
2019-02-18T03:13:59.331Z,18.30
2019-02-18T03:14:33.693Z,16.93
2019-02-18T03:15:08.041Z,19.53
2019-02-18T03:15:42.387Z,19.00
2019-02-18T03:16:16.999Z,18.53
2019-02-18T03:16:51.618Z,20.20
2019-02-18T03:17:25.973Z,15.93
2019-02-18T03:18:00.319Z,16.47
2019-02-18T03:18:34.688Z,15.70
2019-02-18T03:19:09.062Z,17.77
2019-02-18T03:19:44.011Z,17.43
2019-02-18T03:20:18.687Z,20.47
2019-02-18T03:20:53.118Z,21.67
2019-02-18T03:21:27.471Z,19.93
2019-02-18T03:22:02.091Z,16.80
2019-02-18T03:22:36.427Z,17.43
2019-02-18T03:23:11.033Z,18.70
2019-02-18T03:23:45.456Z,17.37
2019-02-18T03:24:19.799Z,18.77
2019-02-18T03:25:17.801Z,24.50
2019-02-18T03:25:53.857Z,18.03
2019-02-18T03:26:28.468Z,17.40
2019-02-18T03:27:03.106Z,16.47
2019-02-18T03:27:37.783Z,18.67
2019-02-18T03:28:25.840Z,18.10
2019-02-18T03:29:52.044Z,18.13
2019-02-18T03:30:36.378Z,23.93
2019-02-18T03:31:18.728Z,19.07
2019-02-18T03:31:53.088Z,20.67
2019-02-18T03:32:28.093Z,20.20
2019-02-18T03:33:02.775Z,18.23
2019-02-18T03:33:40.551Z,22.53
2019-02-18T03:34:43.406Z,20.33
2019-02-18T03:35:18.166Z,19.17
2019-02-18T03:35:52.578Z,18.30
2019-02-18T03:36:26.916Z,17.47
2019-02-18T03:37:01.276Z,19.63
2019-02-18T03:37:36.167Z,18.90
2019-02-18T03:38:10.753Z,18.83
2019-02-18T03:38:45.374Z,20.20
2019-02-18T03:39:20.322Z,18.73
2019-02-18T03:39:54.731Z,20.60
2019-02-18T03:40:29.594Z,19.53
2019-02-18T03:41:03.958Z,18.13
2019-02-18T03:41:40.898Z,22.80
2019-02-18T03:42:14.366Z,18.13
2019-02-18T03:42:48.732Z,19.17
2019-02-18T03:43:23.075Z,17.27
2019-02-18T03:43:57.481Z,18.77
2019-02-18T03:44:32.403Z,21.20
2019-02-18T03:45:06.857Z,16.93
2019-02-18T03:45:41.573Z,21.27
2019-02-18T03:46:16.063Z,18.97
2019-02-18T03:46:51.365Z,18.93
2019-02-18T03:47:25.691Z,19.50
2019-02-18T03:48:00.051Z,19.37
2019-02-18T03:48:34.392Z,19.63
2019-02-18T03:49:09.296Z,17.70
2019-02-18T03:49:43.617Z,21.57
2019-02-18T03:50:18.284Z,20.50
2019-02-18T03:50:53.164Z,18.93
2019-02-18T03:51:27.538Z,21.77
2019-02-18T03:52:01.889Z,17.90
2019-02-18T03:52:36.234Z,22.60
2019-02-18T03:53:10.843Z,21.80
2019-02-18T03:53:45.565Z,20.03
2019-02-18T03:54:19.980Z,20.53
2019-02-18T03:54:54.356Z,20.70
2019-02-18T03:55:28.736Z,20.87
2019-02-18T03:56:03.043Z,21.27
2019-02-18T03:56:37.383Z,22.43
2019-02-18T03:57:12.373Z,19.30
2019-02-18T03:57:46.727Z,19.70
2019-02-18T03:58:21.340Z,19.93
2019-02-18T03:58:55.794Z,21.43
2019-02-18T03:59:30.211Z,17.43
2019-02-18T04:00:05.294Z,21.37
2019-02-18T04:00:39.893Z,18.07
2019-02-18T04:01:14.278Z,20.70
2019-02-18T04:01:49.145Z,21.33
2019-02-18T04:02:23.772Z,18.53
2019-02-18T04:02:58.312Z,19.63
2019-02-18T04:03:32.643Z,17.67
2019-02-18T04:04:07.040Z,18.13
2019-02-18T04:04:41.380Z,20.43
2019-02-18T04:05:16.043Z,19.47
2019-02-18T04:05:50.482Z,23.43
2019-02-18T04:06:24.861Z,20.63
2019-02-18T04:06:59.821Z,20.33
2019-02-18T04:07:34.445Z,20.23
2019-02-18T04:08:08.837Z,17.00
2019-02-18T04:08:43.511Z,18.33
2019-02-18T04:09:18.308Z,20.60
2019-02-18T04:09:52.672Z,18.80
2019-02-18T04:10:27.034Z,17.13
2019-02-18T04:11:01.371Z,19.87
2019-02-18T04:11:35.691Z,18.80
2019-02-18T04:12:10.043Z,17.57
2019-02-18T04:12:44.500Z,19.20
2019-02-18T04:13:18.889Z,17.50
2019-02-18T04:13:53.507Z,21.57
2019-02-18T04:14:27.874Z,20.47
2019-02-18T04:15:02.505Z,18.10
2019-02-18T04:15:37.368Z,17.50
2019-02-18T04:16:11.739Z,19.33
2019-02-18T04:16:46.365Z,17.57
2019-02-18T04:17:20.937Z,17.00
2019-02-18T04:17:55.302Z,15.70
2019-02-18T04:18:29.678Z,17.97
2019-02-18T04:19:04.264Z,16.80
2019-02-18T04:19:38.583Z,19.77
2019-02-18T04:20:12.925Z,21.43
2019-02-18T04:20:47.338Z,16.57
2019-02-18T04:21:22.130Z,17.03
2019-02-18T04:21:56.477Z,18.50
2019-02-18T04:22:30.826Z,16.93
2019-02-18T04:23:05.426Z,16.70
2019-02-18T04:23:40.314Z,18.60
2019-02-18T04:24:15.069Z,18.50
2019-02-18T04:24:49.783Z,17.73
2019-02-18T04:25:24.370Z,18.40
2019-02-18T04:25:59.277Z,22.53
2019-02-18T04:26:33.855Z,18.93
2019-02-18T04:27:08.453Z,20.00
2019-02-18T04:27:43.032Z,21.17
2019-02-18T04:28:18.025Z,20.47
2019-02-18T04:28:52.654Z,20.27
2019-02-18T04:29:27.260Z,24.30
2019-02-18T04:30:01.605Z,26.43
2019-02-18T04:30:35.935Z,25.70
2019-02-18T04:31:10.309Z,18.30
2019-02-18T04:31:44.914Z,22.27
2019-02-18T04:32:19.283Z,23.83
2019-02-18T04:32:53.635Z,17.10
2019-02-18T04:33:28.258Z,20.43
2019-02-18T04:34:02.918Z,17.83
2019-02-18T04:34:37.261Z,20.73
2019-02-18T04:35:11.589Z,24.63
2019-02-18T04:35:46.317Z,27.97
2019-02-18T04:36:21.317Z,20.10
2019-02-18T04:36:55.913Z,25.87
2019-02-18T04:37:30.277Z,21.40
2019-02-18T04:38:04.949Z,19.80
2019-02-18T04:38:39.701Z,20.93
2019-02-18T04:39:14.414Z,24.97
2019-02-18T04:39:48.843Z,26.93
2019-02-18T04:40:23.223Z,20.90
2019-02-18T04:40:57.637Z,21.00
2019-02-18T04:41:32.002Z,19.17
2019-02-18T04:42:06.337Z,25.17
2019-02-18T04:42:41.063Z,19.17
2019-02-18T04:43:15.398Z,20.40
2019-02-18T04:43:50.037Z,26.57
2019-02-18T04:44:24.384Z,24.37
2019-02-18T04:44:58.998Z,25.07
2019-02-18T04:45:33.343Z,20.00
2019-02-18T04:46:07.782Z,20.43
2019-02-18T04:46:42.153Z,16.83
2019-02-18T04:47:17.113Z,20.30
2019-02-18T04:47:52.031Z,25.13
2019-02-18T04:48:26.652Z,18.77
2019-02-18T04:49:00.996Z,18.77
2019-02-18T04:49:35.352Z,15.83
2019-02-18T04:50:09.742Z,20.07
2019-02-18T04:50:44.624Z,18.47
2019-02-18T04:51:19.124Z,17.47
2019-02-18T04:51:53.784Z,17.00
2019-02-18T04:52:28.141Z,18.33
2019-02-18T04:53:02.735Z,18.50
2019-02-18T04:53:37.109Z,17.47
2019-02-18T04:54:11.470Z,17.17
2019-02-18T04:54:45.938Z,15.20
2019-02-18T04:55:20.599Z,17.97
2019-02-18T04:55:55.284Z,20.23
2019-02-18T04:56:29.633Z,16.30
2019-02-18T04:57:04.222Z,16.80
2019-02-18T04:57:38.819Z,16.77
2019-02-18T04:58:13.161Z,18.60
2019-02-18T04:58:47.644Z,15.20
2019-02-18T04:59:22.318Z,17.57
2019-02-18T04:59:56.996Z,19.10
2019-02-18T05:00:31.341Z,17.20
2019-02-18T05:01:05.953Z,15.47
2019-02-18T05:01:41.178Z,15.83
2019-02-18T05:02:15.543Z,14.80
2019-02-18T05:02:49.894Z,14.83
2019-02-18T05:03:24.699Z,17.40
2019-02-18T05:03:59.084Z,17.83
2019-02-18T05:04:33.638Z,18.27
2019-02-18T05:05:07.993Z,15.43
2019-02-18T05:05:42.404Z,18.73
2019-02-18T05:06:17.113Z,17.80
2019-02-18T05:06:52.102Z,15.07
2019-02-18T05:07:26.457Z,16.63
2019-02-18T05:08:01.150Z,17.67
2019-02-18T05:08:35.498Z,19.77
2019-02-18T05:09:10.420Z,22.57
2019-02-18T05:09:44.880Z,14.63
2019-02-18T05:10:19.505Z,15.83
2019-02-18T05:10:53.868Z,21.87
2019-02-18T05:11:28.302Z,15.57
2019-02-18T05:12:03.001Z,17.13
2019-02-18T05:12:37.699Z,19.97
2019-02-18T05:13:12.030Z,19.13
2019-02-18T05:13:46.421Z,16.83
2019-02-18T05:14:21.108Z,16.93
2019-02-18T05:14:55.714Z,20.27
2019-02-18T05:15:30.577Z,17.67
2019-02-18T05:16:05.521Z,19.50
2019-02-18T05:16:40.173Z,21.23
2019-02-18T05:17:14.823Z,19.57
2019-02-18T05:17:49.256Z,15.50
2019-02-18T05:18:23.619Z,16.73
2019-02-18T05:18:58.236Z,19.13
2019-02-18T05:19:32.593Z,18.33
2019-02-18T05:20:07.071Z,18.57
2019-02-18T05:20:41.413Z,20.87
2019-02-18T05:21:15.826Z,19.17
2019-02-18T05:21:50.609Z,17.60
2019-02-18T05:22:25.428Z,17.47
2019-02-18T05:22:59.713Z,18.83
2019-02-18T05:23:34.078Z,18.67
2019-02-18T05:24:08.434Z,18.50
2019-02-18T05:24:43.034Z,18.10
2019-02-18T05:25:17.454Z,19.57
2019-02-18T05:25:51.806Z,18.93
2019-02-18T05:26:26.713Z,16.17
2019-02-18T05:27:01.475Z,18.23
2019-02-18T05:27:36.106Z,19.13
2019-02-18T05:28:10.693Z,20.27
2019-02-18T05:28:45.719Z,19.73
2019-02-18T05:29:20.121Z,16.90
2019-02-18T05:29:54.463Z,22.43
2019-02-18T05:30:29.585Z,20.87
2019-02-18T05:31:04.294Z,20.00
2019-02-18T05:31:38.673Z,22.57
2019-02-18T05:32:13.055Z,18.93
2019-02-18T05:32:47.454Z,22.20
2019-02-18T05:33:21.932Z,20.03
2019-02-18T05:33:56.271Z,19.93
2019-02-18T05:34:30.616Z,20.23
2019-02-18T05:35:05.140Z,21.73
2019-02-18T05:35:39.749Z,20.93
2019-02-18T05:36:14.117Z,20.93
2019-02-18T05:36:48.761Z,19.10
2019-02-18T05:37:23.498Z,20.17
2019-02-18T05:37:58.087Z,20.63
2019-02-18T05:38:32.430Z,19.13
2019-02-18T05:39:17.571Z,22.37
2019-02-18T05:39:44.341Z,18.23
2019-02-18T05:40:18.965Z,21.60
2019-02-18T05:40:53.355Z,22.37
2019-02-18T05:41:27.712Z,20.00
2019-02-18T05:42:02.081Z,22.87
2019-02-18T05:42:36.421Z,19.23
2019-02-18T05:43:11.029Z,23.37
2019-02-18T05:43:45.381Z,18.97
2019-02-18T05:44:19.745Z,21.70
2019-02-18T05:44:54.105Z,20.20
2019-02-18T05:45:29.025Z,18.43
2019-02-18T05:46:03.359Z,20.67
2019-02-18T05:46:37.707Z,17.17
2019-02-18T05:47:12.097Z,23.53
2019-02-18T05:47:46.484Z,19.87
2019-02-18T05:48:21.090Z,18.43
2019-02-18T05:48:55.462Z,20.50
2019-02-18T05:49:29.873Z,19.20
2019-02-18T05:50:04.319Z,18.63
2019-02-18T05:50:38.941Z,19.37
2019-02-18T05:51:13.539Z,19.97
2019-02-18T05:51:48.159Z,22.33
2019-02-18T05:52:22.597Z,20.23
2019-02-18T05:52:57.466Z,18.10
2019-02-18T05:53:31.905Z,21.00
2019-02-18T05:54:06.250Z,22.20
2019-02-18T05:54:40.577Z,22.23
2019-02-18T05:55:14.973Z,19.50
2019-02-18T05:55:49.618Z,18.30
2019-02-18T05:56:24.249Z,20.60
2019-02-18T05:56:58.652Z,21.50
2019-02-18T05:57:32.979Z,21.63
2019-02-18T05:58:07.332Z,22.97
2019-02-18T05:58:41.939Z,24.10
2019-02-18T05:59:16.329Z,23.50
2019-02-18T05:59:51.014Z,20.30
2019-02-18T06:00:25.646Z,19.37
2019-02-18T06:00:59.975Z,20.37
2019-02-18T06:01:34.402Z,21.27
2019-02-18T06:02:09.042Z,24.53
2019-02-18T06:02:43.386Z,22.43
2019-02-18T06:03:17.760Z,25.17
2019-02-18T06:03:52.351Z,23.30
2019-02-18T06:04:26.711Z,26.40
2019-02-18T06:05:01.333Z,24.03
2019-02-18T06:05:35.772Z,28.57
2019-02-18T06:06:10.117Z,25.03
2019-02-18T06:06:44.757Z,26.83
2019-02-18T06:07:19.330Z,21.43
2019-02-18T06:07:53.729Z,27.00
2019-02-18T06:08:28.365Z,23.97
2019-02-18T06:09:04.021Z,22.77
2019-02-18T06:09:38.413Z,25.00
2019-02-18T06:10:14.227Z,24.90
2019-02-18T06:10:49.725Z,22.30
2019-02-18T06:11:24.386Z,26.97
2019-02-18T06:11:59.002Z,22.73
2019-02-18T06:12:33.978Z,26.10
2019-02-18T06:13:08.326Z,24.20
2019-02-18T06:13:42.918Z,21.93
2019-02-18T06:14:17.579Z,24.07
2019-02-18T06:14:52.286Z,21.80
2019-02-18T06:15:27.213Z,21.43
2019-02-18T06:16:01.587Z,31.30
2019-02-18T06:16:36.203Z,26.67
2019-02-18T06:17:10.875Z,24.90
2019-02-18T06:17:45.564Z,23.33
2019-02-18T06:18:20.001Z,24.13
2019-02-18T06:18:55.591Z,22.73
2019-02-18T06:19:30.239Z,22.30
2019-02-18T06:20:05.142Z,24.33
2019-02-18T06:20:39.808Z,24.57
2019-02-18T06:21:14.173Z,20.67
2019-02-18T06:21:48.602Z,21.37
2019-02-18T06:22:23.027Z,22.13
2019-02-18T06:22:57.685Z,18.33
2019-02-18T06:23:32.281Z,19.27
2019-02-18T06:24:06.666Z,19.97
2019-02-18T06:24:41.326Z,21.97
2019-02-18T06:25:15.753Z,23.53
2019-02-18T06:25:50.179Z,22.57
2019-02-18T06:26:24.652Z,21.80
2019-02-18T06:26:59.005Z,21.27
2019-02-18T06:27:33.376Z,21.27
2019-02-18T06:28:08.013Z,20.67
2019-02-18T06:28:42.361Z,20.57
2019-02-18T06:29:16.981Z,24.07
2019-02-18T06:29:51.648Z,20.00
2019-02-18T06:30:26.536Z,23.30
2019-02-18T06:31:01.408Z,21.60
2019-02-18T06:31:36.060Z,21.47
2019-02-18T06:32:10.414Z,23.87
2019-02-18T06:32:44.934Z,21.10
2019-02-18T06:33:19.962Z,21.40
2019-02-18T06:33:54.473Z,21.97
2019-02-18T06:34:29.190Z,23.13
2019-02-18T06:35:04.169Z,23.20
2019-02-18T06:35:38.516Z,23.67
2019-02-18T06:36:13.171Z,19.07
2019-02-18T06:36:47.556Z,20.50
2019-02-18T06:37:22.102Z,22.30
2019-02-18T06:37:56.544Z,20.43
2019-02-18T06:38:31.025Z,18.90
2019-02-18T06:39:06.528Z,25.53
2019-02-18T06:39:42.046Z,22.67
2019-02-18T06:40:16.618Z,25.07
2019-02-18T06:40:51.246Z,21.10
2019-02-18T06:41:25.604Z,20.40
2019-02-18T06:42:00.264Z,19.67
2019-02-18T06:42:34.635Z,23.67
2019-02-18T06:43:09.368Z,19.63
2019-02-18T06:43:44.128Z,22.57
2019-02-18T06:44:21.595Z,21.40
2019-02-18T06:45:26.864Z,20.17
2019-02-18T06:46:34.888Z,19.93
2019-02-18T06:47:12.746Z,22.07
2019-02-18T06:47:47.460Z,23.93
2019-02-18T06:48:28.598Z,21.63
2019-02-18T06:49:12.158Z,19.57
2019-02-18T06:49:46.548Z,22.13
2019-02-18T06:50:20.932Z,22.63
2019-02-18T06:50:55.320Z,22.83
2019-02-18T06:51:30.282Z,25.50
2019-02-18T06:52:04.600Z,24.50
2019-02-18T06:52:38.962Z,18.90
2019-02-18T06:53:13.340Z,21.60
2019-02-18T06:53:47.698Z,25.17
2019-02-18T06:54:22.064Z,20.43
2019-02-18T06:54:56.435Z,25.10
2019-02-18T06:55:30.770Z,20.73
2019-02-18T06:56:05.117Z,22.90
2019-02-18T06:57:01.228Z,19.97
2019-02-18T06:57:58.269Z,20.20
2019-02-18T06:58:54.259Z,23.50
2019-02-18T06:59:34.933Z,22.13
2019-02-18T07:00:25.118Z,19.97
2019-02-18T07:01:03.644Z,23.63
2019-02-18T07:01:43.552Z,24.43
2019-02-18T07:02:39.928Z,23.97
2019-02-18T07:03:20.820Z,24.13
2019-02-18T07:04:15.541Z,21.00
2019-02-18T07:05:02.914Z,25.07
2019-02-18T07:05:55.304Z,25.00
2019-02-18T07:06:49.787Z,20.80
2019-02-18T07:07:42.346Z,22.93
2019-02-18T07:08:39.710Z,23.50
2019-02-18T07:09:24.605Z,24.30
2019-02-18T07:10:06.930Z,20.63
2019-02-18T07:11:12.400Z,20.63
2019-02-18T07:11:51.661Z,25.87
2019-02-18T07:12:31.286Z,23.03
2019-02-18T07:13:05.699Z,19.87
2019-02-18T07:13:40.318Z,21.30
2019-02-18T07:14:15.283Z,22.93
2019-02-18T07:14:49.674Z,23.23
2019-02-18T07:15:24.100Z,25.40
2019-02-18T07:15:58.550Z,24.77
2019-02-18T07:16:32.948Z,22.17
2019-02-18T07:17:07.276Z,25.23
2019-02-18T07:17:41.650Z,23.13
2019-02-18T07:18:16.058Z,22.63
2019-02-18T07:18:50.823Z,20.90
2019-02-18T07:19:25.538Z,20.93
2019-02-18T07:20:00.514Z,22.77
2019-02-18T07:20:34.852Z,23.07
2019-02-18T07:21:09.199Z,22.87
2019-02-18T07:21:43.565Z,22.27
2019-02-18T07:22:17.949Z,21.87
2019-02-18T07:22:52.435Z,21.27
2019-02-18T07:23:27.164Z,23.20
2019-02-18T07:24:01.772Z,20.90
2019-02-18T07:24:36.379Z,23.43
2019-02-18T07:25:11.311Z,22.60
2019-02-18T07:25:46.336Z,22.53
2019-02-18T07:26:20.841Z,20.47
2019-02-18T07:26:55.283Z,22.10
2019-02-18T07:27:29.624Z,20.07
2019-02-18T07:28:04.544Z,20.53
2019-02-18T07:28:38.991Z,22.27
2019-02-18T07:29:13.606Z,21.60
2019-02-18T07:29:48.647Z,22.27
2019-02-18T07:30:23.460Z,20.97
2019-02-18T07:30:57.994Z,22.83
2019-02-18T07:31:32.676Z,24.20
2019-02-18T07:32:07.043Z,24.37
2019-02-18T07:32:41.413Z,26.93
2019-02-18T07:33:16.181Z,21.30
2019-02-18T07:33:50.900Z,22.27
2019-02-18T07:34:25.341Z,20.77